createdAt,value
2023-01-15T00:02:13.747Z,12.90
2023-01-15T00:04:46.249Z,14.70
2023-01-15T00:07:18.408Z,14.55
2023-01-15T00:09:51.715Z,13.60
2023-01-15T00:12:23.746Z,13.67
2023-01-15T00:14:58.221Z,11.43
2023-01-15T00:17:30.641Z,13.38
2023-01-15T00:20:04.547Z,12.80
2023-01-15T00:25:26.332Z,12.68
2023-01-15T00:28:00.924Z,14.45
2023-01-15T00:30:32.523Z,11.63
2023-01-15T00:33:04.516Z,14.18
2023-01-15T00:35:37.759Z,13.15
2023-01-15T00:38:09.886Z,14.78
2023-01-15T00:40:42.336Z,11.65
2023-01-15T00:43:14.776Z,12.47
2023-01-15T00:45:52.494Z,11.03
2023-01-15T00:48:24.959Z,17.73
2023-01-15T00:50:57.233Z,13.70
2023-01-15T00:53:29.603Z,16.40
2023-01-15T00:56:02.033Z,17.25
2023-01-15T00:58:34.688Z,13.53
2023-01-15T01:01:07.161Z,19.10
2023-01-15T01:03:39.539Z,15.65
2023-01-15T01:06:12.306Z,13.30
2023-01-15T01:08:46.686Z,13.05
2023-01-15T01:11:21.852Z,9.05
2023-01-15T01:13:55.926Z,10.00
2023-01-15T01:19:04.244Z,13.15
2023-01-15T01:21:38.392Z,12.98
2023-01-15T01:26:47.228Z,12.07
2023-01-15T01:29:22.010Z,10.25
2023-01-15T01:31:54.059Z,12.68
2023-01-15T01:34:26.606Z,12.95
2023-01-15T01:36:59.773Z,16.65
2023-01-15T01:39:32.118Z,13.05
2023-01-15T01:42:04.412Z,13.98
2023-01-15T01:44:39.606Z,13.58
2023-01-15T01:47:15.990Z,14.98
2023-01-15T01:49:50.662Z,18.77
2023-01-15T01:52:28.436Z,17.45
2023-01-15T01:55:01.685Z,16.25
2023-01-15T01:57:35.122Z,16.42
2023-01-15T02:00:08.639Z,25.20
2023-01-15T02:02:46.222Z,12.73
2023-01-15T02:05:33.238Z,11.75
2023-01-15T02:08:07.286Z,12.73
2023-01-15T02:10:40.417Z,17.37
2023-01-15T02:13:26.714Z,14.35
2023-01-15T02:16:05.169Z,18.57
2023-01-15T02:18:58.303Z,14.20
2023-01-15T02:21:49.075Z,16.97
2023-01-15T02:24:52.443Z,14.15
2023-01-15T02:27:27.109Z,19.00
2023-01-15T02:30:05.166Z,13.03
2023-01-15T02:32:58.987Z,12.05
2023-01-15T02:35:49.102Z,30.52
2023-01-15T02:38:24.158Z,10.63
2023-01-15T02:40:59.768Z,14.60
2023-01-15T02:43:37.674Z,13.20
2023-01-15T02:46:12.731Z,14.43
2023-01-15T02:48:48.385Z,11.00
2023-01-15T02:51:23.816Z,13.48
2023-01-15T02:53:59.618Z,12.65
2023-01-15T02:56:36.301Z,17.00
2023-01-15T02:59:11.505Z,16.65
2023-01-15T03:01:48.375Z,11.63
2023-01-15T03:04:35.605Z,16.17
2023-01-15T03:07:19.410Z,12.95
2023-01-15T03:13:04.497Z,14.85
2023-01-15T03:16:17.245Z,11.70
2023-01-15T03:18:58.462Z,11.68
2023-01-15T03:21:42.673Z,12.30
2023-01-15T03:24:17.674Z,13.90
2023-01-15T03:26:51.566Z,15.35
2023-01-15T03:29:27.145Z,12.65
2023-01-15T03:32:01.271Z,13.35
2023-01-15T03:37:06.392Z,16.25
2023-01-15T03:39:39.336Z,17.10
2023-01-15T03:42:18.632Z,13.58
2023-01-15T03:45:11.439Z,14.10
2023-01-15T03:47:53.087Z,19.05
2023-01-15T03:50:35.536Z,15.30
2023-01-15T03:53:28.441Z,15.32
2023-01-15T03:56:08.212Z,15.93
2023-01-15T03:58:45.052Z,19.65
2023-01-15T04:01:22.095Z,16.60
2023-01-15T04:03:57.218Z,17.92
2023-01-15T04:06:34.341Z,15.00
2023-01-15T04:09:10.189Z,15.95
2023-01-15T04:11:42.388Z,18.73
2023-01-15T04:14:16.095Z,16.93
2023-01-15T04:16:49.795Z,17.52
2023-01-15T04:19:22.256Z,20.48
2023-01-15T04:21:59.093Z,18.15
2023-01-15T04:24:31.450Z,18.52
2023-01-15T04:27:03.520Z,14.80
2023-01-15T04:29:35.646Z,16.67
2023-01-15T04:32:08.273Z,20.55
2023-01-15T04:34:40.709Z,20.80
2023-01-15T04:37:12.715Z,22.35
2023-01-15T04:39:44.931Z,11.97
2023-01-15T04:42:35.188Z,22.25
2023-01-15T04:45:07.763Z,30.15
2023-01-15T04:47:40.984Z,25.82
2023-01-15T04:50:13.383Z,16.10
2023-01-15T04:52:45.496Z,26.93
2023-01-15T04:55:17.765Z,24.50
2023-01-15T04:57:51.644Z,18.92
2023-01-15T05:00:23.997Z,30.52
2023-01-15T05:02:56.343Z,25.60
2023-01-15T05:05:28.643Z,27.22
2023-01-15T05:08:00.871Z,22.05
2023-01-15T05:10:32.930Z,22.93
2023-01-15T05:13:05.343Z,26.45
2023-01-15T05:15:39.130Z,30.35
2023-01-15T05:18:12.930Z,17.80
2023-01-15T05:20:45.098Z,22.32
2023-01-15T05:23:17.122Z,28.40
2023-01-15T05:25:49.248Z,27.73
2023-01-15T05:28:21.381Z,31.30
2023-01-15T05:30:53.777Z,25.45
2023-01-15T05:33:26.529Z,41.77
2023-01-15T05:36:03.708Z,39.70
2023-01-15T05:38:36.116Z,30.90
2023-01-15T05:41:31.705Z,31.17
2023-01-15T05:44:06.874Z,24.25
2023-01-15T05:46:41.809Z,38.13
2023-01-15T05:49:16.946Z,24.15
2023-01-15T05:51:50.041Z,31.73
2023-01-15T05:54:25.305Z,24.37
2023-01-15T05:56:58.467Z,32.80
2023-01-15T05:59:33.331Z,24.07
2023-01-15T06:02:06.296Z,46.00
2023-01-15T06:04:38.455Z,29.82
2023-01-15T06:07:10.601Z,29.32
2023-01-15T06:09:42.898Z,31.00
2023-01-15T06:12:15.000Z,42.83
2023-01-15T06:14:47.200Z,38.33
2023-01-15T06:17:19.386Z,29.55
2023-01-15T06:19:51.537Z,38.42
2023-01-15T06:22:23.603Z,36.65
2023-01-15T06:24:55.964Z,28.45
2023-01-15T06:27:29.107Z,24.65
2023-01-15T06:30:01.679Z,36.20
2023-01-15T06:32:34.424Z,24.25
2023-01-15T06:35:06.888Z,34.67
2023-01-15T06:37:38.998Z,38.02
2023-01-15T06:40:13.104Z,38.58
2023-01-15T06:43:03.447Z,41.48
2023-01-15T06:45:58.702Z,37.48
2023-01-15T06:48:31.528Z,44.75
2023-01-15T06:51:03.963Z,33.70
2023-01-15T06:53:36.509Z,40.00
2023-01-15T06:56:09.375Z,26.10
2023-01-15T06:58:43.057Z,29.60
2023-01-15T07:01:18.008Z,17.92
2023-01-15T07:03:50.503Z,27.07
2023-01-15T07:06:23.335Z,42.40
2023-01-15T07:08:57.411Z,48.17
2023-01-15T07:11:29.748Z,32.88
2023-01-15T07:14:08.220Z,30.57
2023-01-15T07:16:40.813Z,35.70
2023-01-15T07:19:13.309Z,30.40
2023-01-15T07:21:46.247Z,27.62
2023-01-15T07:24:19.332Z,38.47
2023-01-15T07:26:51.580Z,28.38
2023-01-15T07:29:24.238Z,41.13
2023-01-15T07:31:57.398Z,33.85
2023-01-15T07:34:29.968Z,46.35
2023-01-15T07:37:02.105Z,38.28
2023-01-15T07:39:34.962Z,46.25
2023-01-15T07:42:25.893Z,28.23
2023-01-15T07:45:16.457Z,37.50
2023-01-15T07:48:06.413Z,52.98
2023-01-15T07:50:40.991Z,35.13
2023-01-15T07:53:13.173Z,35.65
2023-01-15T07:55:45.331Z,32.85
2023-01-15T07:58:18.411Z,37.25
2023-01-15T08:00:52.424Z,50.10
2023-01-15T08:03:28.585Z,29.15
2023-01-15T08:06:01.957Z,34.23
2023-01-15T08:08:34.496Z,24.73
2023-01-15T08:11:24.704Z,35.90
2023-01-15T08:14:14.763Z,29.90
2023-01-15T08:16:47.218Z,23.87
2023-01-15T08:19:19.569Z,33.25
2023-01-15T08:21:53.374Z,42.10
2023-01-15T08:24:25.926Z,35.58
2023-01-15T08:26:58.507Z,35.88
2023-01-15T08:29:30.909Z,33.67
2023-01-15T08:32:03.821Z,46.63
2023-01-15T08:34:36.495Z,25.48
2023-01-15T08:37:08.639Z,51.90
2023-01-15T08:39:42.488Z,36.73
2023-01-15T08:42:14.967Z,30.35
2023-01-15T08:44:47.237Z,28.77
2023-01-15T08:47:19.779Z,34.38
2023-01-15T08:49:52.251Z,23.35
2023-01-15T08:52:35.762Z,27.45
2023-01-15T08:55:14.107Z,24.98
2023-01-15T08:57:45.673Z,30.85
2023-01-15T09:00:18.822Z,20.27
2023-01-15T09:02:51.138Z,15.87
2023-01-15T09:05:23.574Z,27.65
2023-01-15T09:07:56.602Z,27.73
2023-01-15T09:10:31.764Z,20.17
2023-01-15T09:13:04.952Z,27.80
2023-01-15T09:15:38.582Z,31.02
2023-01-15T09:20:51.249Z,34.75
2023-01-15T09:23:25.433Z,31.65
2023-01-15T09:26:08.899Z,20.45
2023-01-15T09:28:41.100Z,25.68
2023-01-15T09:31:13.136Z,29.40
2023-01-15T09:33:45.295Z,15.75
2023-01-15T09:36:29.114Z,23.25
2023-01-15T09:42:08.408Z,26.10
2023-01-15T09:45:05.945Z,20.23
2023-01-15T09:47:56.610Z,21.52
2023-01-15T09:50:57.271Z,20.92
2023-01-15T09:53:36.114Z,23.62
2023-01-15T09:56:11.382Z,18.10
2023-01-15T09:58:43.632Z,24.40
2023-01-15T10:01:21.830Z,23.67
2023-01-15T10:04:06.575Z,20.30
2023-01-15T10:07:00.241Z,23.52
2023-01-15T10:12:36.984Z,21.05
2023-01-15T10:15:32.958Z,19.80
2023-01-15T10:18:09.189Z,20.90
2023-01-15T10:21:08.809Z,23.75
2023-01-15T10:24:12.977Z,21.80
2023-01-15T10:26:59.410Z,21.25
2023-01-15T10:29:50.015Z,19.77
2023-01-15T10:33:02.452Z,24.40
2023-01-15T10:36:03.110Z,20.43
2023-01-15T10:39:02.978Z,25.02
2023-01-15T10:41:56.853Z,23.92
2023-01-15T10:44:43.754Z,20.80
2023-01-15T10:47:18.829Z,20.30
2023-01-15T10:49:55.060Z,22.48
2023-01-15T10:52:34.660Z,23.57
2023-01-15T10:55:10.370Z,20.57
2023-01-15T10:58:10.967Z,22.07
2023-01-15T11:00:48.658Z,28.40
2023-01-15T11:03:24.567Z,21.20
2023-01-15T11:06:00.220Z,17.73
2023-01-15T11:09:07.365Z,15.55
2023-01-15T11:11:19.373Z,16.90
2023-01-15T11:14:15.332Z,17.85
2023-01-15T11:17:07.272Z,15.53
2023-01-15T11:19:45.274Z,12.90
2023-01-15T11:22:23.075Z,16.42
2023-01-15T11:24:58.821Z,22.60
2023-01-15T11:27:36.983Z,19.10
2023-01-15T11:30:46.306Z,11.75
2023-01-15T11:33:32.325Z,34.15
2023-01-15T11:36:07.920Z,19.85
2023-01-15T11:38:48.676Z,17.70
2023-01-15T11:41:54.963Z,12.23
2023-01-15T11:44:45.156Z,15.90
2023-01-15T11:47:36.960Z,27.07
2023-01-15T11:50:37.224Z,17.42
2023-01-15T11:53:12.214Z,13.08
2023-01-15T11:55:53.300Z,23.87
2023-01-15T11:58:25.545Z,11.18
2023-01-15T12:00:59.682Z,10.82
2023-01-15T12:06:09.340Z,11.60
2023-01-15T12:08:52.665Z,14.43
2023-01-15T12:11:30.562Z,15.23
2023-01-15T12:14:39.831Z,14.70
2023-01-15T12:17:21.016Z,17.52
2023-01-15T12:20:27.829Z,21.70
2023-01-15T12:23:07.779Z,14.68
2023-01-15T12:25:57.031Z,11.05
2023-01-15T12:28:34.879Z,18.98
2023-01-15T12:31:10.385Z,11.43
2023-01-15T12:34:09.176Z,19.02
2023-01-15T12:36:44.230Z,7.40
2023-01-15T12:39:25.758Z,10.95
2023-01-15T12:42:21.434Z,12.58
2023-01-15T12:45:04.688Z,12.98
2023-01-15T12:47:52.214Z,12.88
2023-01-15T12:50:53.145Z,11.12
2023-01-15T12:53:28.015Z,8.53
2023-01-15T12:56:17.950Z,9.95
2023-01-15T12:59:02.310Z,13.10
2023-01-15T13:01:52.132Z,16.00
2023-01-15T13:04:43.540Z,12.75
2023-01-15T13:07:36.000Z,11.48
2023-01-15T13:10:20.258Z,9.25
2023-01-15T13:12:55.461Z,13.10
2023-01-15T13:15:30.872Z,11.95
2023-01-15T13:18:12.830Z,10.45
2023-01-15T13:20:51.647Z,10.85
2023-01-15T13:23:44.175Z,8.75
2023-01-15T13:26:42.133Z,12.90
2023-01-15T13:29:32.288Z,8.45
2023-01-15T13:32:10.275Z,11.68
2023-01-15T13:34:48.430Z,13.30
2023-01-15T13:37:23.520Z,11.25
2023-01-15T13:39:58.870Z,8.20
2023-01-15T13:42:32.830Z,8.00
2023-01-15T13:45:10.849Z,9.88
2023-01-15T13:47:48.489Z,11.70
2023-01-15T13:50:26.738Z,14.30
2023-01-15T13:53:10.541Z,7.28
2023-01-15T13:58:30.610Z,13.70
2023-01-15T14:01:09.433Z,7.90
2023-01-15T14:03:41.466Z,7.10
2023-01-15T14:06:13.749Z,8.05
2023-01-15T14:08:47.089Z,12.00
2023-01-15T14:11:40.158Z,11.50
2023-01-15T14:14:43.508Z,10.82
2023-01-15T14:17:52.699Z,12.95
2023-01-15T14:20:54.103Z,9.05
2023-01-15T14:23:53.820Z,9.90
2023-01-15T14:26:44.061Z,9.23
2023-01-15T14:29:22.458Z,11.70
2023-01-15T14:32:09.204Z,11.28
2023-01-15T14:34:40.754Z,8.33
2023-01-15T14:37:30.777Z,10.78
2023-01-15T14:40:05.660Z,11.85
2023-01-15T14:42:58.437Z,8.13
2023-01-15T14:45:39.340Z,12.68
2023-01-15T14:48:32.188Z,10.05
2023-01-15T14:51:24.090Z,9.38
2023-01-15T14:53:59.353Z,11.93
2023-01-15T14:56:35.120Z,14.83
2023-01-15T14:59:22.685Z,12.33
2023-01-15T15:02:04.467Z,11.97
2023-01-15T15:04:56.337Z,8.95
2023-01-15T15:07:41.686Z,15.90
2023-01-15T15:10:36.088Z,11.08
2023-01-15T15:13:12.773Z,8.80
2023-01-15T15:15:50.883Z,15.10
2023-01-15T15:18:39.145Z,11.05
2023-01-15T15:21:20.656Z,13.80
2023-01-15T15:23:58.655Z,11.28
2023-01-15T15:26:36.285Z,6.92
2023-01-15T15:29:20.423Z,10.45
2023-01-15T15:31:57.528Z,13.53
2023-01-15T15:34:35.659Z,10.10
2023-01-15T15:37:13.870Z,16.82
2023-01-15T15:39:55.264Z,10.32
2023-01-15T15:42:47.657Z,10.63
2023-01-15T15:45:40.567Z,8.58
2023-01-15T15:48:42.793Z,11.22
2023-01-15T15:51:32.962Z,8.50
2023-01-15T15:54:17.444Z,9.05
2023-01-15T15:57:05.942Z,10.80
2023-01-15T15:59:51.235Z,6.53
2023-01-15T16:02:36.665Z,13.15
2023-01-15T16:05:23.704Z,14.15
2023-01-15T16:07:56.738Z,11.20
2023-01-15T16:10:34.256Z,7.70
2023-01-15T16:13:08.893Z,11.85
2023-01-15T16:15:43.450Z,14.07
2023-01-15T16:18:30.155Z,13.25
2023-01-15T16:21:02.655Z,13.10
2023-01-15T16:23:34.866Z,12.37
2023-01-15T16:26:23.125Z,9.10
2023-01-15T16:28:58.584Z,11.30
2023-01-15T16:31:36.322Z,12.00
2023-01-15T16:34:08.466Z,11.35
2023-01-15T16:36:44.885Z,6.60
2023-01-15T16:39:19.916Z,11.93
2023-01-15T16:41:54.363Z,9.88
2023-01-15T16:44:38.213Z,8.93
2023-01-15T16:47:13.209Z,10.25
2023-01-15T16:49:45.346Z,11.25
2023-01-15T16:52:36.668Z,15.30
2023-01-15T16:55:23.555Z,7.22
2023-01-15T16:57:58.685Z,14.80
2023-01-15T17:00:32.839Z,11.63
2023-01-15T17:03:05.311Z,12.80
2023-01-15T17:05:37.243Z,12.60
2023-01-15T17:08:21.199Z,20.02
2023-01-15T17:11:01.736Z,10.75
2023-01-15T17:13:39.700Z,11.97
2023-01-15T17:16:17.873Z,19.35
2023-01-15T17:18:51.791Z,22.52
2023-01-15T17:21:28.818Z,14.55
2023-01-15T17:24:01.136Z,15.78
2023-01-15T17:26:33.391Z,16.23
2023-01-15T17:29:05.660Z,15.80
2023-01-15T17:31:39.197Z,15.90
2023-01-15T17:34:12.208Z,15.63
2023-01-15T17:36:44.293Z,13.70
2023-01-15T17:39:18.109Z,22.07
2023-01-15T17:41:50.136Z,21.37
2023-01-15T17:44:22.812Z,18.42
2023-01-15T17:46:54.760Z,15.30
2023-01-15T17:49:26.938Z,19.73
2023-01-15T17:51:59.986Z,13.32
2023-01-15T17:54:49.919Z,19.00
2023-01-15T17:57:39.742Z,23.27
2023-01-15T18:00:30.799Z,15.30
2023-01-15T18:03:20.899Z,13.20
2023-01-15T18:05:53.389Z,13.72
2023-01-15T18:08:25.470Z,15.30
2023-01-15T18:10:57.525Z,13.78
2023-01-15T18:13:30.523Z,19.00
2023-01-15T18:16:02.771Z,10.88
2023-01-15T18:18:35.528Z,15.28
2023-01-15T18:21:07.779Z,14.58
2023-01-15T18:23:39.851Z,13.95
2023-01-15T18:26:11.928Z,15.25
2023-01-15T18:28:45.573Z,14.23
2023-01-15T18:31:17.755Z,11.18
2023-01-15T18:33:50.961Z,15.30
2023-01-15T18:36:23.190Z,18.37
2023-01-15T18:38:55.861Z,14.50
2023-01-15T18:41:38.344Z,18.05
2023-01-15T18:44:30.526Z,19.27
2023-01-15T18:47:05.551Z,14.35
2023-01-15T18:49:37.793Z,12.30
2023-01-15T18:52:28.447Z,9.98
2023-01-15T18:55:01.017Z,12.73
2023-01-15T18:57:35.088Z,12.70
2023-01-15T19:02:40.153Z,15.95
2023-01-15T19:05:13.236Z,15.50
2023-01-15T19:07:45.948Z,12.50
2023-01-15T19:10:19.642Z,14.33
2023-01-15T19:12:51.655Z,12.73
2023-01-15T19:15:41.212Z,15.90
2023-01-15T19:18:31.070Z,14.65
2023-01-15T19:21:08.145Z,10.53
2023-01-15T19:23:41.198Z,16.77
2023-01-15T19:26:13.199Z,14.05
2023-01-15T19:28:45.425Z,15.23
2023-01-15T19:31:36.847Z,16.70
2023-01-15T19:34:32.691Z,10.58
2023-01-15T19:36:44.186Z,17.02
2023-01-15T19:39:17.620Z,14.70
2023-01-15T19:42:07.186Z,16.05
2023-01-15T19:44:57.340Z,12.68
2023-01-15T19:47:55.865Z,17.37
2023-01-15T19:50:33.507Z,13.48
2023-01-15T19:53:07.348Z,14.47
2023-01-15T19:55:41.459Z,13.08
2023-01-15T20:00:48.885Z,14.38
2023-01-15T20:03:21.090Z,25.05
2023-01-15T20:05:53.125Z,11.80
2023-01-15T20:08:25.285Z,17.10
2023-01-15T20:10:57.283Z,17.60
2023-01-15T20:13:46.861Z,14.03
2023-01-15T20:16:22.545Z,14.00
2023-01-15T20:18:55.726Z,15.38
2023-01-15T20:21:27.760Z,15.70
2023-01-15T20:24:00.041Z,14.33
2023-01-15T20:26:31.887Z,15.85
2023-01-15T20:29:03.930Z,12.37
2023-01-15T20:31:36.251Z,16.27
2023-01-15T20:34:08.190Z,11.85
2023-01-15T20:36:40.282Z,16.93
2023-01-15T20:39:12.111Z,12.82
2023-01-15T20:42:01.698Z,14.28
2023-01-15T20:44:51.296Z,13.20
2023-01-15T20:47:43.650Z,11.75
2023-01-15T20:50:17.823Z,11.65
2023-01-15T20:55:23.381Z,14.75
2023-01-15T20:57:55.624Z,13.53
2023-01-15T21:00:28.147Z,12.85
2023-01-15T21:03:02.035Z,14.13
2023-01-15T21:05:34.509Z,14.03
2023-01-15T21:08:07.101Z,14.50
2023-01-15T21:10:39.490Z,16.17
2023-01-15T21:13:13.305Z,13.83
2023-01-15T21:18:16.640Z,15.23
2023-01-15T21:20:48.839Z,14.85
2023-01-15T21:23:21.430Z,10.85
2023-01-15T21:25:55.215Z,12.82
2023-01-15T21:28:27.391Z,15.50
2023-01-15T21:31:01.582Z,13.60
2023-01-15T21:36:10.421Z,9.63
2023-01-15T21:38:43.018Z,10.65
2023-01-15T21:41:16.233Z,14.53
2023-01-15T21:44:05.681Z,13.30
2023-01-15T21:46:38.436Z,11.43
2023-01-15T21:49:10.395Z,13.35
2023-01-15T21:51:42.654Z,10.88
2023-01-15T21:54:15.046Z,14.58
2023-01-15T21:56:47.500Z,12.80
2023-01-15T21:59:21.916Z,10.25
2023-01-15T22:01:58.229Z,12.82
2023-01-15T22:04:38.155Z,15.38
2023-01-15T22:07:11.658Z,18.67
2023-01-15T22:09:43.675Z,13.45
2023-01-15T22:12:15.943Z,13.90
2023-01-15T22:14:49.367Z,13.62
2023-01-15T22:17:21.467Z,6.85
2023-01-15T22:19:53.766Z,17.37
2023-01-15T22:22:28.061Z,13.75
2023-01-15T22:25:00.177Z,13.80
2023-01-15T22:27:34.202Z,13.55
2023-01-15T22:30:07.254Z,16.35
2023-01-15T22:32:39.703Z,16.27
2023-01-15T22:35:11.765Z,15.90
2023-01-15T22:37:44.075Z,14.90
2023-01-15T22:40:16.278Z,16.17
2023-01-15T22:42:48.680Z,15.08
2023-01-15T22:45:20.866Z,14.00
2023-01-15T22:47:53.195Z,14.53
2023-01-15T22:50:25.512Z,13.75
2023-01-15T22:52:57.483Z,13.15
2023-01-15T22:55:29.532Z,14.70
2023-01-15T22:58:01.829Z,18.15
2023-01-15T23:00:34.415Z,17.60
2023-01-15T23:03:06.428Z,15.55
2023-01-15T23:05:39.486Z,13.25
2023-01-15T23:08:11.949Z,12.30
2023-01-15T23:10:46.611Z,16.67
2023-01-15T23:13:18.957Z,17.07
2023-01-15T23:15:59.374Z,15.03
2023-01-15T23:18:32.627Z,17.82
2023-01-15T23:21:09.960Z,14.85
2023-01-15T23:23:42.503Z,17.77
2023-01-15T23:26:18.097Z,18.00
2023-01-15T23:28:50.968Z,15.08
2023-01-15T23:31:23.742Z,18.60
2023-01-15T23:33:56.300Z,16.50
2023-01-15T23:36:28.532Z,22.15
2023-01-15T23:39:00.829Z,21.12
2023-01-15T23:41:50.514Z,24.60
2023-01-15T23:44:40.804Z,24.50
2023-01-15T23:47:13.072Z,13.15
2023-01-15T23:49:45.483Z,14.80
2023-01-15T23:52:17.971Z,23.85
2023-01-15T23:54:50.270Z,17.77
2023-01-15T23:57:22.495Z,20.43
2023-01-15T23:59:54.667Z,15.72
